Time;durP1;ratioP1;P1;durP2;ratioP2;P2;SDS_P1;SDS_P2;PMS_P1;PMS_P2;Temp;Humidity;BMP_temperature;BMP_pressure;BME280_temperature;BME280_humidity;BME280_pressure;Samples;Min_cycle;Max_cycle;Signal;HPM_P1;HPM_P2
2021/08/24 00:01:16;;;;;;;8.97;6.50;;;;;;;16.92;65.67;102359.25;5040609;28;20232;-71
2021/08/24 00:03:41;;;;;;;6.70;6.10;;;;;;;16.62;66.64;102364.16;5040904;28;20190;-72
2021/08/24 00:06:07;;;;;;;8.10;6.23;;;;;;;16.88;65.50;102354.78;5040971;28;20417;-72
2021/08/24 00:08:34;;;;;;;7.50;6.67;;;;;;;16.83;65.69;102370.53;5040718;28;20174;-71
2021/08/24 00:10:59;;;;;;;9.63;6.30;;;;;;;16.75;65.92;102365.19;5040819;28;20162;-71
2021/08/24 00:13:26;;;;;;;7.10;6.40;;;;;;;16.55;66.99;102365.00;5040135;28;20399;-72
2021/08/24 00:15:52;;;;;;;7.47;6.77;;;;;;;16.50;67.05;102370.19;5040262;28;20189;-72
2021/08/24 00:18:18;;;;;;;6.60;6.00;;;;;;;16.65;66.62;102368.59;5040672;28;20387;-72
2021/08/24 00:20:45;;;;;;;6.63;6.03;;;;;;;16.56;66.55;102366.75;5040086;28;20181;-72
2021/08/24 00:23:12;;;;;;;8.00;6.77;;;;;;;16.62;66.41;102373.84;5039898;28;20464;-72
2021/08/24 00:25:38;;;;;;;7.87;6.80;;;;;;;16.67;66.22;102375.66;5022644;28;20439;-71
2021/08/24 00:28:04;;;;;;;9.47;6.63;;;;;;;16.42;67.14;102373.59;5040121;28;20444;-71
2021/08/24 00:30:30;;;;;;;7.53;6.77;;;;;;;16.61;66.01;102380.84;5040331;28;20497;-71
2021/08/24 00:32:55;;;;;;;7.13;6.50;;;;;;;16.53;66.08;102381.63;5039828;28;20502;-72
2021/08/24 00:35:21;;;;;;;6.93;6.33;;;;;;;16.49;66.99;102378.97;5039791;28;20166;-72
2021/08/24 00:37:46;;;;;;;7.30;6.60;;;;;;;16.42;67.00;102390.28;5040296;28;20182;-70
2021/08/24 00:40:12;;;;;;;7.33;6.63;;;;;;;16.32;67.40;102397.19;5039756;28;20174;-71
2021/08/24 00:42:39;;;;;;;7.83;6.40;;;;;;;16.48;67.14;102386.81;5039678;28;20571;-70
2021/08/24 00:45:09;;;;;;;8.30;6.27;;;;;;;16.38;66.80;102392.88;5022710;28;20413;-70
2021/08/24 00:47:35;;;;;;;7.03;6.33;;;;;;;16.11;67.77;102389.00;5039442;28;20805;-71
2021/08/24 00:50:06;;;;;;;8.60;6.97;;;;;;;16.28;67.64;102392.75;5039478;28;20671;-71
2021/08/24 00:52:31;;;;;;;8.27;7.13;;;;;;;16.28;67.74;102389.25;5022260;28;20412;-71
2021/08/24 00:54:57;;;;;;;6.63;6.03;;;;;;;16.28;67.31;102397.13;5039519;28;20403;-70
2021/08/24 00:57:23;;;;;;;8.90;6.47;;;;;;;16.36;66.83;102395.47;5022687;28;20174;-71
2021/08/24 00:59:49;;;;;;;8.03;7.17;;;;;;;16.38;67.08;102399.00;5039362;28;20260;-73
2021/08/24 01:02:15;;;;;;;7.97;6.90;;;;;;;16.32;66.78;102402.44;5039292;28;20516;-71
2021/08/24 01:04:41;;;;;;;6.63;6.13;;;;;;;16.19;67.60;102395.25;5039521;28;20384;-71
2021/08/24 01:07:31;;;;;;;8.17;6.47;;;;;;;15.94;68.47;102394.03;5039356;28;20400;-71
2021/08/24 01:10:19;;;;;;;7.30;6.60;;;;;;;15.92;68.55;102395.78;5005583;28;20271;-70
2021/08/24 01:12:50;;;;;;;7.70;5.73;;;;;;;15.98;68.50;102395.88;5021852;28;20445;-71
2021/08/24 01:15:33;;;;;;;7.03;6.27;;;;;;;16.04;68.64;102395.06;5021564;28;20754;-71
2021/08/24 01:18:04;;;;;;;9.17;8.17;;;;;;;15.89;68.62;102398.38;5021752;28;20808;-71
2021/08/24 01:20:31;;;;;;;7.90;7.10;;;;;;;15.94;68.71;102396.66;5039079;28;20487;-71
2021/08/24 01:23:11;;;;;;;8.53;6.83;;;;;;;16.04;68.67;102397.69;5038640;28;20467;-71
2021/08/24 01:26:04;;;;;;;7.13;6.43;;;;;;;15.72;69.41;102400.72;5038589;28;20439;-71
2021/08/24 01:28:38;;;;;;;7.43;6.70;;;;;;;15.73;69.79;102399.84;5035080;28;20399;-73
2021/08/24 01:31:26;;;;;;;7.27;6.57;;;;;;;15.77;68.52;102406.94;5021522;28;20875;-71
2021/08/24 01:34:19;;;;;;;8.10;7.30;;;;;;;15.73;68.87;102407.75;5021036;28;20734;-72
2021/08/24 01:36:51;;;;;;;7.07;6.47;;;;;;;15.78;68.98;102417.47;5021585;28;20736;-73
2021/08/24 01:39:31;;;;;;;7.50;6.80;;;;;;;15.64;69.50;102408.47;5021353;28;20412;-72
2021/08/24 01:42:11;;;;;;;6.77;6.17;;;;;;;15.66;68.81;102412.03;5038302;28;20695;-73
2021/08/24 01:44:41;;;;;;;8.50;6.77;;;;;;;15.63;69.22;102412.84;5021179;28;20467;-74
2021/08/24 01:47:36;;;;;;;7.43;6.67;;;;;;;15.57;69.08;102414.50;5021452;28;20814;-73
2021/08/24 01:50:27;;;;;;;10.60;9.27;;;;;;;15.52;70.00;102408.28;5027059;28;20821;-74
2021/08/24 01:52:56;;;;;;;8.80;7.53;;;;;;;15.34;70.16;102417.63;5021169;28;20496;-73
2021/08/24 01:55:25;;;;;;;7.37;6.53;;;;;;;15.09;70.28;102419.84;5019276;28;20680;-72
2021/08/24 01:57:55;;;;;;;7.17;6.27;;;;;;;15.63;69.19;102418.13;5021063;28;20804;-73
2021/08/24 02:00:21;;;;;;;7.30;6.67;;;;;;;15.19;70.37;102423.50;5021203;28;20424;-73
2021/08/24 02:02:56;;;;;;;10.80;7.00;;;;;;;15.28;70.65;102420.19;5038054;28;20462;-73
2021/08/24 02:05:28;;;;;;;7.43;6.80;;;;;;;15.44;69.81;102426.59;5021424;28;20174;-74
2021/08/24 02:07:59;;;;;;;6.77;6.17;;;;;;;15.08;70.79;102425.94;5004482;28;20417;-72
2021/08/24 02:10:25;;;;;;;6.97;6.27;;;;;;;15.38;69.43;102418.59;5021198;28;20396;-72
2021/08/24 02:12:53;;;;;;;6.57;5.97;;;;;;;15.09;70.77;102419.84;5020925;28;20425;-73
2021/08/24 02:15:23;;;;;;;6.27;5.67;;;;;;;15.23;70.99;102424.47;5037891;28;20484;-72
2021/08/24 02:17:48;;;;;;;7.73;5.83;;;;;;;15.44;69.65;102423.94;5038360;28;20417;-74
2021/08/24 02:20:17;;;;;;;6.60;5.93;;;;;;;15.62;69.14;102423.34;5038045;28;20809;-73
2021/08/24 02:22:44;;;;;;;6.80;6.10;;;;;;;15.58;69.55;102421.53;5037855;28;20217;-73
2021/08/24 02:25:13;;;;;;;6.60;6.00;;;;;;;15.34;70.45;102422.88;5037423;28;20457;-74
2021/08/24 02:27:43;;;;;;;6.60;6.00;;;;;;;15.51;69.93;102419.69;5022348;28;20402;-73
2021/08/24 02:30:09;;;;;;;6.40;5.90;;;;;;;15.37;70.11;102430.84;5025052;28;20519;-74
2021/08/24 02:32:38;;;;;;;9.07;6.10;;;;;;;15.48;69.68;102413.50;5041777;28;20532;-74
2021/08/24 02:35:12;;;;;;;7.23;6.53;;;;;;;15.49;69.64;102422.25;5024684;28;20202;-73
2021/08/24 02:37:42;;;;;;;6.90;6.30;;;;;;;15.37;69.65;102422.97;5041950;28;20474;-72
2021/08/24 02:40:11;;;;;;;7.57;6.23;;;;;;;15.29;70.58;102424.59;5024354;28;20722;-72
2021/08/24 02:43:01;;;;;;;6.47;5.87;;;;;;;15.38;69.97;102422.09;5042045;28;20448;-71
2021/08/24 02:45:32;;;;;;;7.40;6.20;;;;;;;15.26;70.21;102425.41;4991720;28;20429;-70
2021/08/24 02:48:00;;;;;;;7.07;6.47;;;;;;;15.22;70.67;102433.19;5041596;28;20399;-71
2021/08/24 02:50:26;;;;;;;6.97;6.30;;;;;;;15.23;70.74;102424.47;5024521;28;20644;-70
2021/08/24 02:52:53;;;;;;;6.57;5.97;;;;;;;15.35;70.11;102431.69;5041376;28;20449;-71
2021/08/24 02:55:18;;;;;;;6.77;6.17;;;;;;;15.29;70.52;102432.47;5041864;28;20166;-70
2021/08/24 02:57:44;;;;;;;7.43;6.23;;;;;;;15.26;70.78;102437.63;5041184;28;20516;-70
2021/08/24 03:00:09;;;;;;;8.57;6.57;;;;;;;15.31;70.37;102439.47;5041443;28;20185;-71
2021/08/24 03:02:35;;;;;;;6.37;5.87;;;;;;;15.23;70.63;102448.09;5041701;28;20198;-71
2021/08/24 03:05:00;;;;;;;7.10;6.40;;;;;;;15.05;71.56;102446.03;5041362;28;20228;-71
2021/08/24 03:07:30;;;;;;;6.63;6.03;;;;;;;14.98;71.75;102442.41;5041214;28;20178;-71
2021/08/24 03:09:57;;;;;;;6.87;6.17;;;;;;;15.11;70.83;102441.78;5041753;28;20205;-71
2021/08/24 03:12:55;;;;;;;7.00;6.40;;;;;;;15.06;71.37;102437.28;5041222;28;20427;-71
2021/08/24 03:15:24;;;;;;;7.90;7.10;;;;;;;14.84;71.96;102436.00;5040958;28;20779;-71
2021/08/24 03:17:53;;;;;;;7.27;6.57;;;;;;;15.02;71.53;102438.09;5026054;28;20515;-72
2021/08/24 03:20:20;;;;;;;7.33;6.57;;;;;;;15.19;70.92;102441.03;5041247;28;20416;-72
2021/08/24 03:22:45;;;;;;;7.07;6.37;;;;;;;15.04;72.04;102439.88;5024150;28;20491;-72
2021/08/24 03:25:12;;;;;;;7.40;6.70;;;;;;;15.19;71.56;102435.78;5023621;28;20431;-73
2021/08/24 03:27:41;;;;;;;6.80;6.20;;;;;;;15.04;71.64;102437.25;5023817;28;20208;-72
2021/08/24 03:30:11;;;;;;;7.50;6.70;;;;;;;15.18;71.05;102434.91;5041138;28;20412;-72
2021/08/24 03:32:36;;;;;;;7.60;7.00;;;;;;;15.28;70.19;102431.56;5040769;28;20479;-72
2021/08/24 03:35:02;;;;;;;8.37;7.40;;;;;;;15.03;70.60;102440.72;5040857;28;20434;-71
2021/08/24 03:37:28;;;;;;;7.40;6.73;;;;;;;14.99;71.02;102438.91;5040959;28;20178;-73
2021/08/24 03:39:53;;;;;;;7.20;6.50;;;;;;;14.96;71.28;102438.84;5039958;28;20889;-73
2021/08/24 03:42:18;;;;;;;7.80;7.10;;;;;;;15.08;70.89;102446.09;5040648;28;20193;-75
2021/08/24 03:44:46;;;;;;;8.00;7.20;;;;;;;14.91;71.15;102437.88;5040789;28;20163;-75
2021/08/24 03:47:11;;;;;;;7.53;6.83;;;;;;;14.84;71.31;102444.75;5040779;28;20520;-74
2021/08/24 03:49:37;;;;;;;8.00;7.20;;;;;;;14.84;71.75;102442.13;5039996;28;20507;-74
2021/08/24 03:52:03;;;;;;;12.63;8.17;;;;;;;14.93;71.14;102444.94;5040711;28;20166;-75
2021/08/24 03:54:28;;;;;;;7.20;6.60;;;;;;;14.74;72.48;102451.56;5006801;28;20388;-74
2021/08/24 03:56:54;;;;;;;8.40;7.20;;;;;;;14.88;71.88;102451.84;5040458;28;20414;-75
2021/08/24 03:59:19;;;;;;;9.87;8.43;;;;;;;14.90;72.18;102444.88;5040467;28;20178;-75
2021/08/24 04:01:44;;;;;;;9.00;8.20;;;;;;;14.70;72.03;102456.75;5023134;28;20248;-75
2021/08/24 04:04:10;;;;;;;9.47;8.47;;;;;;;14.88;71.99;102456.22;5040191;28;20280;-74
2021/08/24 04:06:35;;;;;;;8.93;8.07;;;;;;;14.73;72.35;102457.66;5023032;28;20613;-73
2021/08/24 04:09:00;;;;;;;9.33;8.20;;;;;;;14.61;72.86;102458.31;5040135;28;20170;-74
2021/08/24 04:11:26;;;;;;;11.23;8.87;;;;;;;14.55;72.73;102462.53;5040220;28;20579;-73
2021/08/24 04:13:51;;;;;;;9.63;8.63;;;;;;;14.57;72.81;102464.34;5040220;28;20162;-75
2021/08/24 04:16:16;;;;;;;9.57;8.63;;;;;;;14.57;73.09;102463.44;5039955;28;20185;-71
2021/08/24 04:18:42;;;;;;;10.43;9.43;;;;;;;14.63;72.70;102466.25;5039994;28;20170;-71
2021/08/24 04:21:10;;;;;;;9.60;8.70;;;;;;;14.76;72.74;102464.72;5040196;28;20173;-71
2021/08/24 04:23:36;;;;;;;10.10;9.00;;;;;;;14.68;72.57;102469.84;5022287;28;20212;-71
2021/08/24 04:26:01;;;;;;;9.97;8.87;;;;;;;14.67;72.67;102475.94;5019264;28;20449;-73
2021/08/24 04:28:27;;;;;;;10.07;9.10;;;;;;;14.80;72.38;102469.19;5020197;28;20819;-72
2021/08/24 04:30:52;;;;;;;10.40;9.13;;;;;;;14.93;72.02;102465.06;5019976;28;20194;-72
2021/08/24 04:33:22;;;;;;;10.50;9.40;;;;;;;14.94;72.05;102465.09;5019878;28;20189;-73
2021/08/24 04:35:56;;;;;;;10.80;9.73;;;;;;;14.88;72.07;102469.34;5020070;28;20170;-73
2021/08/24 04:38:22;;;;;;;11.80;9.77;;;;;;;15.01;71.83;102473.97;5018948;28;20404;-73
2021/08/24 04:40:48;;;;;;;10.03;9.00;;;;;;;14.89;72.51;102474.63;5019909;28;20702;-73
2021/08/24 04:43:13;;;;;;;12.10;9.30;;;;;;;15.05;71.02;102475.81;5019098;28;20282;-73
2021/08/24 04:45:39;;;;;;;10.80;9.80;;;;;;;14.99;71.71;102478.31;5019547;28;20179;-72
2021/08/24 04:48:04;;;;;;;10.57;9.47;;;;;;;15.09;71.80;102477.63;5019714;28;20225;-73
2021/08/24 04:50:30;;;;;;;9.53;8.63;;;;;;;15.06;71.58;102472.34;5018986;28;20186;-73
2021/08/24 04:52:55;;;;;;;10.30;9.23;;;;;;;15.42;70.27;102476.47;5019392;28;20171;-73
2021/08/24 04:55:21;;;;;;;10.67;9.53;;;;;;;15.37;70.23;102491.28;5018573;28;20178;-72
2021/08/24 04:57:46;;;;;;;10.47;9.47;;;;;;;15.19;71.62;102476.06;5019634;28;20253;-72
2021/08/24 05:00:12;;;;;;;10.70;9.60;;;;;;;15.19;71.81;102485.69;5019528;28;20469;-72
2021/08/24 05:02:38;;;;;;;12.03;9.57;;;;;;;15.31;70.98;102493.78;5019314;28;20185;-72
2021/08/24 05:05:04;;;;;;;10.60;9.60;;;;;;;15.44;70.72;102493.16;5019563;28;20385;-73
2021/08/24 05:07:29;;;;;;;10.23;9.30;;;;;;;15.51;70.58;102490.66;5019205;28;20286;-73
2021/08/24 05:09:55;;;;;;;9.90;8.70;;;;;;;15.35;71.19;102492.13;5019096;28;20254;-73
2021/08/24 05:12:20;;;;;;;10.43;9.33;;;;;;;15.51;70.81;102494.16;5018999;28;20175;-73
2021/08/24 05:14:45;;;;;;;10.40;9.30;;;;;;;15.51;70.48;102499.41;5019011;28;20261;-73
2021/08/24 05:17:10;;;;;;;11.73;10.10;;;;;;;15.72;70.02;102501.53;5019193;28;20265;-73
2021/08/24 05:19:36;;;;;;;10.57;9.53;;;;;;;15.71;70.44;102499.75;5019329;28;20178;-72
2021/08/24 05:22:01;;;;;;;12.40;10.80;;;;;;;15.96;69.28;102503.69;5018104;28;20205;-72
2021/08/24 05:24:27;;;;;;;10.80;9.80;;;;;;;15.85;69.96;102502.63;5024344;28;20291;-71
2021/08/24 05:26:52;;;;;;;10.90;9.87;;;;;;;15.92;70.00;102503.63;5038964;28;20244;-72
2021/08/24 05:29:17;;;;;;;10.13;9.10;;;;;;;15.88;69.87;102507.06;5038503;28;20182;-72
2021/08/24 05:31:44;;;;;;;11.20;10.00;;;;;;;16.08;69.35;102499.47;5038746;28;20197;-71
2021/08/24 05:34:10;;;;;;;10.60;9.50;;;;;;;16.34;68.78;102513.00;5039056;28;20210;-72
2021/08/24 05:36:35;;;;;;;10.07;9.07;;;;;;;15.99;69.69;102513.38;5038540;28;20465;-72
2021/08/24 05:39:02;;;;;;;11.63;9.50;;;;;;;16.26;69.19;102514.66;5021429;28;20430;-72
2021/08/24 05:41:27;;;;;;;10.77;9.40;;;;;;;16.21;69.27;102514.59;5038549;28;20482;-72
2021/08/24 05:43:53;;;;;;;10.33;9.37;;;;;;;16.62;68.31;102508.13;5038153;28;20468;-72
2021/08/24 05:46:18;;;;;;;12.23;11.00;;;;;;;18.45;62.22;102506.28;5038088;28;20170;-73
2021/08/24 05:48:43;;;;;;;8.80;7.90;;;;;;;19.06;58.81;102520.66;5038513;28;20249;-72
2021/08/24 05:51:17;;;;;;;10.50;9.40;;;;;;;21.08;53.87;102497.44;5037247;28;20221;-73
2021/08/24 05:53:43;;;;;;;11.23;10.10;;;;;;;22.32;50.13;102502.56;5037515;28;20264;-74
2021/08/24 05:56:18;;;;;;;8.40;7.50;;;;;;;21.71;50.45;102502.31;5038289;28;20512;-73
2021/08/24 05:58:44;;;;;;;10.40;7.90;;;;;;;22.42;49.50;102506.94;5038002;28;20183;-72
2021/08/24 06:01:17;;;;;;;6.80;6.20;;;;;;;20.96;52.23;102509.88;5037955;28;20515;-71
2021/08/24 06:03:42;;;;;;;11.63;9.10;;;;;;;21.84;51.14;102508.41;5037908;28;20261;-73
2021/08/24 06:06:07;;;;;;;7.23;6.00;;;;;;;20.39;54.21;102520.69;5038297;28;20683;-72
2021/08/24 06:08:33;;;;;;;6.53;5.93;;;;;;;21.42;51.77;102506.06;5021276;28;20181;-72
2021/08/24 06:10:58;;;;;;;12.53;6.37;;;;;;;22.10;49.57;102501.94;5038375;28;20178;-72
2021/08/24 06:13:23;;;;;;;6.40;5.90;;;;;;;21.85;50.33;102510.13;5037943;28;20532;-72
2021/08/24 06:15:49;;;;;;;6.90;5.83;;;;;;;21.32;52.25;102510.53;5038653;28;20219;-71
2021/08/24 06:18:14;;;;;;;8.23;5.50;;;;;;;19.99;55.10;102523.41;5037847;28;20240;-71
2021/08/24 06:20:41;;;;;;;6.33;5.53;;;;;;;21.50;52.10;102514.84;5037977;28;20170;-72
2021/08/24 06:23:06;;;;;;;9.27;7.33;;;;;;;23.83;45.35;102503.09;5038295;28;20454;-71
2021/08/24 06:25:32;;;;;;;6.53;5.37;;;;;;;23.07;47.17;102511.41;5037769;28;20465;-71
2021/08/24 06:27:57;;;;;;;6.97;5.27;;;;;;;20.81;52.39;102512.59;5037906;28;20178;-71
2021/08/24 06:30:22;;;;;;;5.83;5.33;;;;;;;20.25;54.58;102512.78;5038451;28;20196;-71
2021/08/24 06:32:51;;;;;;;6.20;4.83;;;;;;;21.07;51.38;102509.81;5034083;28;20575;-77
2021/08/24 06:35:18;;;;;;;7.90;6.93;;;;;;;23.95;45.80;102507.38;5020471;28;20450;-76
2021/08/24 06:37:44;;;;;;;4.93;4.53;;;;;;;21.92;48.54;102516.25;5037990;28;20412;-74
2021/08/24 06:40:10;;;;;;;5.40;4.90;;;;;;;21.80;48.99;102515.50;5037695;28;20451;-76
2021/08/24 06:42:40;;;;;;;4.40;4.00;;;;;;;23.50;44.60;102510.78;5020460;28;20264;-75
2021/08/24 06:45:05;;;;;;;5.63;5.10;;;;;;;24.07;43.50;102511.56;5037458;28;20175;-75
2021/08/24 06:47:31;;;;;;;5.83;4.00;;;;;;;21.94;46.11;102523.31;5037568;28;20424;-75
2021/08/24 06:49:56;;;;;;;4.37;3.93;;;;;;;21.17;48.88;102531.84;5037521;28;20452;-76
2021/08/24 06:52:21;;;;;;;4.13;3.73;;;;;;;21.63;47.06;102526.25;5037856;28;20166;-78
2021/08/24 06:54:47;;;;;;;3.83;3.37;;;;;;;20.83;47.68;102532.03;5020526;28;20186;-76
2021/08/24 06:57:12;;;;;;;4.43;3.87;;;;;;;22.41;45.37;102526.41;5037789;28;20179;-76
2021/08/24 06:59:38;;;;;;;3.97;3.67;;;;;;;20.49;49.70;102538.31;5037606;28;20189;-77
2021/08/24 07:02:05;;;;;;;4.10;3.70;;;;;;;21.31;47.66;102530.00;5037249;28;20606;-76
2021/08/24 07:04:31;;;;;;;4.70;4.20;;;;;;;20.22;51.31;102541.03;5037453;28;20201;-75
2021/08/24 07:06:56;;;;;;;4.63;4.00;;;;;;;21.97;47.99;102535.69;5020956;28;20744;-76
2021/08/24 07:09:21;;;;;;;4.60;3.70;;;;;;;21.16;48.88;102548.66;5037800;28;20171;-76
2021/08/24 07:11:47;;;;;;;4.93;3.80;;;;;;;21.40;47.96;102533.50;5037482;28;20217;-76
2021/08/24 07:14:12;;;;;;;5.70;3.50;;;;;;;21.55;48.54;102544.00;5039019;28;20216;-76
2021/08/24 07:16:41;;;;;;;5.53;4.30;;;;;;;22.42;46.76;102549.44;5023983;28;20442;-76
2021/08/24 07:19:06;;;;;;;4.07;3.77;;;;;;;22.70;45.27;102554.44;5041199;28;20449;-76
2021/08/24 07:21:32;;;;;;;4.13;3.73;;;;;;;24.64;41.84;102544.25;5041837;28;20424;-76
2021/08/24 07:23:57;;;;;;;3.87;3.47;;;;;;;23.66;43.65;102553.09;5040878;28;20202;-76
2021/08/24 07:26:22;;;;;;;4.40;3.83;;;;;;;22.71;45.58;102557.06;5041103;28;20447;-76
2021/08/24 07:28:48;;;;;;;8.07;4.17;;;;;;;24.38;41.89;102545.63;5041258;28;20250;-75
2021/08/24 07:31:13;;;;;;;3.97;3.50;;;;;;;22.14;46.70;102560.31;5023713;28;20190;-75
2021/08/24 07:33:39;;;;;;;4.33;3.70;;;;;;;21.59;49.09;102561.66;5040839;28;20174;-76
2021/08/24 07:36:05;;;;;;;4.47;3.70;;;;;;;24.02;42.77;102556.09;5023280;28;20232;-75
2021/08/24 07:38:30;;;;;;;3.60;3.30;;;;;;;23.45;43.27;102567.63;5040662;28;20415;-75
2021/08/24 07:40:55;;;;;;;4.23;3.83;;;;;;;24.05;43.08;102572.00;5040810;28;20586;-75
2021/08/24 07:43:21;;;;;;;5.13;3.90;;;;;;;23.55;43.79;102566.59;5040976;28;20182;-77
2021/08/24 07:45:47;;;;;;;4.20;3.67;;;;;;;23.09;43.98;102562.78;5040882;28;20205;-76
2021/08/24 07:48:12;;;;;;;4.37;3.90;;;;;;;25.51;40.27;102552.09;5040617;28;20412;-76
2021/08/24 07:50:38;;;;;;;4.10;3.80;;;;;;;23.73;42.69;102562.72;5040647;28;20213;-76
2021/08/24 07:53:03;;;;;;;4.43;4.10;;;;;;;26.55;37.65;102555.63;5040119;28;20177;-77
2021/08/24 07:55:29;;;;;;;4.03;3.67;;;;;;;28.25;34.64;102546.66;5040533;28;20185;-77
2021/08/24 07:57:54;;;;;;;5.10;3.93;;;;;;;24.46;39.57;102566.81;5040644;28;20177;-77
2021/08/24 08:00:19;;;;;;;4.03;3.63;;;;;;;24.07;41.40;102570.16;5040390;28;20284;-74
2021/08/24 08:02:45;;;;;;;6.03;4.47;;;;;;;26.75;36.11;102558.66;5040183;28;20244;-75
2021/08/24 08:05:11;;;;;;;5.63;3.77;;;;;;;26.71;36.70;102568.56;5040253;28;20171;-74
2021/08/24 08:07:36;;;;;;;3.60;3.30;;;;;;;24.39;39.80;102569.56;5040197;28;20181;-74
2021/08/24 08:10:02;;;;;;;5.97;3.77;;;;;;;23.12;41.30;102588.47;5022710;28;20806;-75
2021/08/24 08:12:27;;;;;;;9.33;3.90;;;;;;;23.52;40.91;102578.16;5040247;28;20177;-75
2021/08/24 08:14:53;;;;;;;3.87;3.47;;;;;;;24.63;37.69;102574.50;5039957;28;20249;-73
2021/08/24 08:17:18;;;;;;;3.77;3.37;;;;;;;24.78;37.84;102574.19;5039921;28;20170;-77
2021/08/24 08:19:44;;;;;;;4.13;3.73;;;;;;;25.85;36.22;102569.97;5039389;28;20196;-76
2021/08/24 08:22:10;;;;;;;4.40;4.00;;;;;;;28.23;33.05;102562.78;5039848;28;20177;-77
2021/08/24 08:24:35;;;;;;;3.50;3.20;;;;;;;26.57;35.30;102568.94;5021457;28;20574;-77
2021/08/24 08:27:00;;;;;;;4.70;3.60;;;;;;;26.31;35.15;102569.69;5040499;28;20162;-77
2021/08/24 08:29:26;;;;;;;3.87;3.57;;;;;;;24.69;37.71;102569.03;5039875;28;20177;-75
2021/08/24 08:31:51;;;;;;;4.93;3.80;;;;;;;23.44;40.60;102585.38;5039633;28;20194;-76
2021/08/24 08:34:18;;;;;;;3.80;3.50;;;;;;;23.78;38.80;102579.53;5006404;28;20229;-76
2021/08/24 08:36:48;;;;;;;4.30;3.90;;;;;;;23.41;39.45;102590.75;5022554;28;20418;-76
2021/08/24 08:39:15;;;;;;;4.43;4.03;;;;;;;26.83;33.95;102578.94;5039690;28;20739;-77
2021/08/24 08:42:17;;;;;;;4.17;3.70;;;;;;;27.87;31.68;102571.19;5040111;28;20424;-77
2021/08/24 08:44:44;;;;;;;4.43;3.70;;;;;;;25.09;36.54;102575.31;5039394;28;20467;-77
2021/08/24 08:47:40;;;;;;;4.20;3.80;;;;;;;28.34;30.85;102561.53;5022540;28;20409;-78
2021/08/24 08:50:30;;;;;;;4.57;4.17;;;;;;;28.49;29.92;102569.00;5022508;28;20412;-78
2021/08/24 08:53:03;;;;;;;5.23;4.20;;;;;;;28.59;30.11;102566.00;5039579;28;20791;-77
2021/08/24 08:55:49;;;;;;;4.10;3.70;;;;;;;25.96;33.65;102574.16;5039395;28;20405;-75
2021/08/24 08:58:33;;;;;;;4.23;3.83;;;;;;;28.51;30.25;102567.16;5022238;28;20412;-75
2021/08/24 09:01:29;;;;;;;5.00;4.27;;;;;;;25.35;32.53;102577.44;5039248;28;20411;-76
2021/08/24 09:04:16;;;;;;;4.83;4.10;;;;;;;27.59;31.01;102563.22;5039194;28;20514;-76
2021/08/24 09:06:44;;;;;;;4.70;4.20;;;;;;;27.73;30.00;102562.75;5022054;28;20823;-77
2021/08/24 09:09:09;;;;;;;4.67;4.27;;;;;;;28.11;29.21;102563.25;5039249;28;20669;-77
2021/08/24 09:11:38;;;;;;;4.10;3.70;;;;;;;25.68;33.35;102572.16;5039046;28;20413;-75
2021/08/24 09:14:26;;;;;;;4.20;3.80;;;;;;;23.70;37.45;102581.44;5019474;28;20186;-73
2021/08/24 09:17:07;;;;;;;4.30;3.90;;;;;;;23.29;37.80;102588.28;5021646;28;20408;-75
2021/08/24 09:19:49;;;;;;;4.60;4.20;;;;;;;25.92;32.70;102568.00;5021857;28;20478;-76
2021/08/24 09:22:16;;;;;;;4.10;3.70;;;;;;;26.46;32.58;102569.25;5021468;28;20416;-76
2021/08/24 09:24:42;;;;;;;4.97;3.80;;;;;;;27.50;31.52;102577.78;5038494;28;20479;-77
2021/08/24 09:27:15;;;;;;;4.20;3.80;;;;;;;27.68;30.11;102580.78;5038917;28;20413;-75
2021/08/24 09:29:44;;;;;;;3.90;3.60;;;;;;;26.60;32.13;102581.34;5038496;28;20181;-76
2021/08/24 09:32:11;;;;;;;4.77;4.37;;;;;;;28.62;29.05;102565.88;5038424;28;20436;-74
2021/08/24 09:34:43;;;;;;;4.40;4.00;;;;;;;25.62;32.54;102567.00;5038414;28;20685;-75
2021/08/24 09:37:08;;;;;;;4.80;4.30;;;;;;;24.76;34.50;102572.44;5037800;28;20463;-75
2021/08/24 09:39:52;;;;;;;4.50;4.10;;;;;;;22.99;36.94;102588.63;5038263;28;20416;-74
2021/08/24 09:42:29;;;;;;;5.97;4.40;;;;;;;25.27;34.64;102577.56;5021255;28;20184;-73
2021/08/24 09:44:59;;;;;;;4.00;3.70;;;;;;;26.33;31.64;102567.84;5038274;28;20425;-71
2021/08/24 09:47:24;;;;;;;4.10;3.80;;;;;;;26.30;32.59;102571.47;5021121;28;20427;-72
2021/08/24 09:49:50;;;;;;;4.50;4.10;;;;;;;28.25;29.72;102564.56;5038577;28;20417;-72
2021/08/24 09:52:21;;;;;;;3.90;3.60;;;;;;;25.47;33.38;102569.13;5021185;28;20170;-71
2021/08/24 09:54:53;;;;;;;4.27;3.87;;;;;;;24.59;35.17;102572.78;5020640;28;20174;-72
2021/08/24 09:57:30;;;;;;;8.67;4.17;;;;;;;27.88;30.70;102567.56;5037876;28;20420;-69
2021/08/24 10:00:21;;;;;;;4.57;4.17;;;;;;;25.58;32.13;102563.50;5020695;28;20421;-70
2021/08/24 10:02:49;;;;;;;4.60;4.20;;;;;;;24.34;35.00;102565.25;5020821;28;20421;-70
2021/08/24 10:05:33;;;;;;;4.63;3.83;;;;;;;26.64;31.46;102556.28;5038030;28;20424;-70
2021/08/24 10:08:01;;;;;;;5.27;3.80;;;;;;;24.60;34.50;102571.84;5037914;28;20439;-69
2021/08/24 10:10:35;;;;;;;5.10;4.27;;;;;;;24.63;35.03;102564.72;5020702;28;20452;-70
2021/08/24 10:13:26;;;;;;;3.87;3.57;;;;;;;23.95;35.95;102560.63;5037734;28;20420;-69
2021/08/24 10:16:03;;;;;;;4.80;3.87;;;;;;;25.17;34.41;102550.22;5037907;28;20447;-69
2021/08/24 10:18:30;;;;;;;3.97;3.67;;;;;;;24.15;35.97;102546.97;5020719;28;20417;-71
2021/08/24 10:20:58;;;;;;;4.50;4.10;;;;;;;23.57;37.04;102558.56;5037882;28;20678;-70
2021/08/24 10:23:29;;;;;;;4.23;3.83;;;;;;;24.48;35.35;102549.00;5037675;28;20490;-69
2021/08/24 10:25:58;;;;;;;4.57;4.17;;;;;;;25.82;32.81;102543.31;5017162;28;20462;-70
2021/08/24 10:28:38;;;;;;;4.33;3.83;;;;;;;22.24;38.54;102549.59;5017730;28;20418;-70
2021/08/24 10:31:37;;;;;;;4.40;4.00;;;;;;;25.29;34.44;102538.38;5017791;28;20443;-70
2021/08/24 10:34:07;;;;;;;6.50;4.23;;;;;;;26.03;33.09;102541.03;4974754;28;20495;-70
2021/08/24 10:36:42;;;;;;;4.20;3.90;;;;;;;26.78;32.47;102530.03;5017342;28;20422;-70
2021/08/24 10:39:25;;;;;;;4.17;3.77;;;;;;;25.87;33.15;102540.53;5017487;28;20409;-70
2021/08/24 10:42:15;;;;;;;4.27;3.90;;;;;;;26.10;32.64;102531.06;5018226;28;20418;-70
2021/08/24 10:44:47;;;;;;;4.77;4.37;;;;;;;26.15;32.90;102540.69;5017910;28;20548;-69
2021/08/24 10:47:25;;;;;;;4.20;3.80;;;;;;;26.09;32.72;102534.63;5018107;28;20426;-70
2021/08/24 10:49:51;;;;;;;4.57;4.17;;;;;;;25.60;32.46;102542.09;5019970;28;20476;-70
2021/08/24 10:52:36;;;;;;;4.73;4.33;;;;;;;26.96;31.90;102535.75;5021172;28;20410;-70
2021/08/24 10:55:05;;;;;;;5.00;4.60;;;;;;;28.47;29.43;102533.34;5021857;28;20424;-70
2021/08/24 10:57:50;;;;;;;4.23;3.83;;;;;;;22.66;37.23;102550.94;5021157;28;20436;-70
2021/08/24 11:00:49;;;;;;;4.50;4.10;;;;;;;23.95;36.49;102538.44;5021101;28;20745;-69
2021/08/24 11:03:27;;;;;;;4.10;3.80;;;;;;;23.10;35.96;102553.03;5021003;28;20739;-70
2021/08/24 11:06:01;;;;;;;4.17;3.80;;;;;;;21.98;37.67;102556.06;5021838;28;20426;-69
2021/08/24 11:08:39;;;;;;;4.77;4.37;;;;;;;24.09;34.36;102547.06;5021010;28;20428;-70
2021/08/24 11:11:14;;;;;;;5.23;4.23;;;;;;;24.10;34.83;102558.59;5021649;28;20685;-70
2021/08/24 11:13:57;;;;;;;5.57;4.50;;;;;;;23.65;35.40;102551.34;5021632;28;20805;-70
2021/08/24 11:16:47;;;;;;;4.17;3.87;;;;;;;26.13;31.83;102533.63;5021240;28;20425;-70
2021/08/24 11:19:40;;;;;;;4.63;4.10;;;;;;;24.48;33.87;102541.00;5021720;28;20812;-71
2021/08/24 11:22:21;;;;;;;4.20;3.80;;;;;;;23.34;34.12;102557.13;5013356;28;20433;-70
2021/08/24 11:25:02;;;;;;;7.33;5.53;;;;;;;25.09;32.69;102545.97;5030109;28;20625;-69
2021/08/24 11:28:05;;;;;;;6.00;4.13;;;;;;;23.49;35.91;102551.59;5041090;28;20417;-69
2021/08/24 11:30:44;;;;;;;4.93;4.20;;;;;;;22.59;38.32;102559.00;5041164;28;20411;-70
2021/08/24 11:33:11;;;;;;;4.97;4.40;;;;;;;24.57;34.77;102546.13;5040949;28;20444;-69
2021/08/24 11:35:42;;;;;;;5.13;4.57;;;;;;;24.96;33.58;102540.03;5023613;28;20730;-69
2021/08/24 11:38:14;;;;;;;4.77;3.83;;;;;;;24.98;33.51;102539.06;5040843;28;20495;-70